CheckWX is a tool to help pilots better visualize weather data.  It is not intended as a substitute for an official pre-flight weather briefing.

20:29:02 UTC

SANR TAF
Termas De Rio Ho Airport
Termas De Rio Ho, Argentina
TAF SANR 221700Z 2218/2318 02005KT 9999 SCT035 TX27/2318Z TN15/2310Z

Mar-22@
18:00 UTC

Mar-22 @ 18:00 UTC

Mar-23@
18:00 UTC

Mar-23 @ 18:00 UTC

TAF SANR 221700Z 2218/2318 02005KT 9999 SCT035 TX27/2318Z TN15/2310Z
Wind
  • 020° at 5 KTS
Cloud Levels
  • Scattered at 3,500' AGL